Prudhoe Bay, AK

7:43 PM AKDT on July 30, 2016 (GMT -0800)
Deadhorse | | Change Station

Elev 59 ft 70.19 °N, 148.47 °W | Updated 9 minutes ago

Overcast
Overcast
46 °F
Feels Like 41 °F
N
9
Wind Variable Wind from NW

Today
High -- | Low -- °F
--% Chance of Precip.
Yesterday
High -- | Low -- °F
Precip. -- in
Pressure 29.76 in
Visibility 10.0 miles
Clouds Overcast 8500 ft
Windchill 41 °F
Dew Point 40 °F
Humidity 79%
Rainfall 0.00 in
Snow Depth Not available.
3:00 AM 0:50 AM
Waning Crescent, 9% visible
SPECI PASC 310334Z 32008KT 10SM OVC085 08/04 A2976 RMK AO2 WSHFT 0314 T00780044
Pressure 29.76 in
Visibility 10.0 miles
Clouds Overcast 8500 ft
Windchill 41 °F
Dew Point 40 °F
Humidity 79%
Rainfall 0.00 in
Snow Depth Not available.
3:00 AM 0:50 AM
Waning Crescent, 9% visible
SPECI PASC 310334Z 32008KT 10SM OVC085 08/04 A2976 RMK AO2 WSHFT 0314 T00780044

10-Day Weather Forecast

Almanac

Astronomy

Jul. 30, 2016 Rise Set
Actual Time
Civil Twilight
Nautical Twilight
Astronomical Twilight
Moon
Length of Visible Light
Length of Day
Tomorrow will be .
, % of the Moon is Illuminated

Today's Extremes

State Highs State Lows

Community

WunderPhotos

Upload Photos

1,928,738 photos uploaded!

WunderBlog® & News

Nearby

Air Quality

  Air Quality AQ Index Pollutant
Not available.

Snow Depth

Station Depth Elevation

Earthquake Activity

City Distance Mag. Time & Date
Minimum magnitude displayed is 2.5.

Coastal Water Temperatures

Place Temperature

Stations

Nearby Weather Stations

Station Location Temp. Windchill Dew Point Humidity Wind Precip. Elev Updated Type
                   

Watches & Warnings

There are currently no watches in effect.